Time;durP1;ratioP1;P1;durP2;ratioP2;P2;SDS_P1;SDS_P2;PMS_P1;PMS_P2;Temp;Humidity;BMP_temperature;BMP_pressure;BME280_temperature;BME280_humidity;BME280_pressure;Samples;Min_cycle;Max_cycle;Signal;HPM_P1;HPM_P2
2022/03/14 00:01:05;;;;;;;;;;;12.90;41.30;;;11.44;37.57;100595.63;5010483;28;19933;-77
2022/03/14 00:03:39;;;;;;;;;;;11.50;40.80;;;11.47;37.19;100604.34;5009909;28;19929;-77
2022/03/14 00:06:10;;;;;;;;;;;11.50;41.00;;;11.49;37.25;100613.06;4994429;28;19937;-78
2022/03/14 00:08:44;;;;;;;;;;;11.50;40.90;;;11.47;37.37;100617.50;5010138;28;19936;-78
2022/03/14 00:11:15;;;;;;;;;;;11.60;41.10;;;11.41;37.77;100615.03;5024732;28;19935;-75
2022/03/14 00:13:46;;;;;;;;;;;11.50;41.40;;;11.29;37.69;100637.25;5009337;28;20433;-77
2022/03/14 00:16:30;;;;;;;;;;;12.10;41.50;;;11.29;38.10;100647.78;5007591;28;19926;-77
2022/03/14 00:18:58;;;;;;;;;;;11.40;41.40;;;11.25;37.97;100645.28;4991161;28;19934;-76
2022/03/14 00:21:26;;;;;;;;;;;11.60;41.40;;;11.23;38.38;100660.22;5007295;28;19936;-76
2022/03/14 00:23:54;;;;;;;;;;;11.50;41.70;;;11.16;38.22;100672.63;5023649;28;19936;-77
2022/03/14 00:26:25;;;;;;;;;;;11.20;41.50;;;11.02;38.30;100676.47;5024948;28;19956;-76
2022/03/14 00:28:53;;;;;;;;;;;11.20;41.60;;;10.86;38.63;100696.97;5010993;28;19976;-77
2022/03/14 00:31:21;;;;;;;;;;;11.10;41.60;;;10.92;38.62;100715.25;5009898;28;19937;-77
2022/03/14 00:33:49;;;;;;;;;;;11.10;41.90;;;10.92;38.81;100722.28;5024826;28;19929;-77
2022/03/14 00:36:16;;;;;;;;;;;11.70;42.40;;;10.88;39.21;100732.00;5008718;28;20047;-78
2022/03/14 00:38:43;;;;;;;;;;;11.00;42.10;;;10.89;38.92;100725.84;5009248;28;19937;-76
2022/03/14 00:41:10;;;;;;;;;;;11.00;42.20;;;10.77;39.44;100737.50;4991474;28;20032;-76
2022/03/14 00:43:37;;;;;;;;;;;11.30;42.50;;;10.82;39.32;100742.69;5022663;28;19936;-77
2022/03/14 00:46:04;;;;;;;;;;;10.90;42.40;;;10.76;39.66;100756.81;5008662;28;19925;-77
2022/03/14 00:48:32;;;;;;;;;;;10.90;42.50;;;10.83;39.52;100756.69;5025541;28;19925;-77
2022/03/14 00:50:59;;;;;;;;;;;11.40;42.70;;;10.78;39.48;100760.28;5024783;28;19930;-77
2022/03/14 00:53:27;;;;;;;;;;;10.90;42.60;;;10.79;39.82;100763.78;4991566;28;19937;-78
2022/03/14 00:55:54;;;;;;;;;;;10.90;42.60;;;10.79;40.69;100771.69;5009154;28;19933;-77
2022/03/14 00:58:21;;;;;;;;;;;10.90;43.00;;;10.84;43.04;100782.09;5008934;28;19932;-77
2022/03/14 01:00:48;;;;;;;;;;;11.00;45.10;;;10.95;44.54;100793.31;5009717;28;19929;-76
2022/03/14 01:03:16;;;;;;;;;;;11.00;46.10;;;11.07;46.83;100795.72;5008834;28;20487;-77
2022/03/14 01:05:43;;;;;;;;;;;11.10;48.40;;;11.09;48.37;100808.00;4994118;28;19987;-77
2022/03/14 01:08:10;;;;;;;;;;;11.10;48.60;;;11.18;59.24;100819.22;5025756;28;20639;-77
2022/03/14 01:10:37;;;;;;;;;;;11.20;52.10;;;11.30;91.66;100830.41;5024544;28;19938;-76
2022/03/14 01:13:04;;;;;;;;;;;11.30;58.10;;;11.40;100.00;100845.16;5022174;28;19933;-75
2022/03/14 01:15:32;;;;;;;;;;;12.80;68.50;;;11.49;100.00;100857.28;4990091;28;19929;-78
2022/03/14 01:18:00;;;;;;;;;;;11.90;81.00;;;11.51;100.00;100865.13;4990802;28;20725;-80
2022/03/14 01:20:27;;;;;;;;;;;11.50;91.70;;;11.58;100.00;100877.31;5012508;28;19929;-78
2022/03/14 01:22:54;;;;;;;;;;;11.60;95.80;;;11.52;100.00;100877.41;5010351;28;19926;-78
2022/03/14 01:25:23;;;;;;;;;;;11.70;97.40;;;11.41;100.00;100890.78;5010337;28;20412;-80
2022/03/14 01:27:51;;;;;;;;;;;11.60;98.00;;;11.41;100.00;100886.41;5010695;28;19960;-75
2022/03/14 01:30:19;;;;;;;;;;;11.80;98.00;;;11.38;100.00;100891.72;5008632;28;20308;-79
2022/03/14 01:32:46;;;;;;;;;;;11.80;98.30;;;11.44;100.00;100901.25;4992991;28;19929;-75
2022/03/14 01:35:13;;;;;;;;;;;11.50;98.30;;;11.42;100.00;100905.69;5022630;28;20398;-79
2022/03/14 01:37:41;;;;;;;;;;;11.50;98.40;;;11.33;100.00;100915.53;5011775;28;19933;-80
2022/03/14 01:40:09;;;;;;;;;;;12.00;98.80;;;11.24;100.00;100933.25;5007179;28;20041;-78
2022/03/14 01:42:37;;;;;;;;;;;11.40;98.90;;;11.26;100.00;100934.09;5021848;28;19929;-76
2022/03/14 01:45:05;;;;;;;;;;;11.40;99.40;;;11.29;100.00;100939.31;5011089;28;20287;-79
2022/03/14 01:47:34;;;;;;;;;;;11.40;99.70;;;11.12;100.00;100960.66;5012490;28;19929;-78
2022/03/14 01:50:01;;;;;;;;;;;11.40;99.90;;;10.90;100.00;100963.66;5022725;28;19926;-78
2022/03/14 01:52:28;;;;;;;;;;;11.20;99.90;;;10.77;100.00;100963.84;5005865;28;19933;-75
2022/03/14 01:54:55;;;;;;;;;;;11.10;99.90;;;10.68;100.00;100985.03;5022429;28;19926;-75
2022/03/14 01:57:22;;;;;;;;;;;10.90;99.90;;;10.41;100.00;100986.28;5026574;28;19929;-79
2022/03/14 01:59:49;;;;;;;;;;;11.30;99.90;;;10.18;100.00;100992.69;5010094;28;19929;-78
2022/03/14 02:02:20;;;;;;;;;;;11.60;99.90;;;10.07;100.00;100992.84;5008275;28;20338;-78
2022/03/14 02:04:47;;;;;;;;;;;10.40;99.90;;;9.90;100.00;100998.28;5009291;28;20032;-77
2022/03/14 02:07:16;;;;;;;;;;;10.60;99.90;;;9.78;100.00;101000.16;5025878;28;20683;-77
2022/03/14 02:09:43;;;;;;;;;;;10.00;99.90;;;9.66;100.00;101010.78;5011276;28;19952;-77
2022/03/14 02:12:11;;;;;;;;;;;10.00;99.90;;;9.64;100.00;101017.81;5009775;28;20314;-78
2022/03/14 02:14:41;;;;;;;;;;;9.90;99.90;;;9.61;100.00;101009.97;5027592;28;19935;-79
2022/03/14 02:17:20;;;;;;;;;;;9.80;99.90;;;9.54;100.00;101013.53;5028743;28;19929;-77
2022/03/14 02:19:47;;;;;;;;;;;9.80;99.90;;;9.55;100.00;101017.91;5029120;28;19929;-79
2022/03/14 02:22:14;;;;;;;;;;;12.00;99.90;;;9.46;100.00;101022.34;5011075;28;19930;-77
2022/03/14 02:24:43;;;;;;;;;;;9.80;99.90;;;9.49;100.00;101024.09;5028435;28;19936;-76
2022/03/14 02:27:12;;;;;;;;;;;9.60;99.90;;;9.54;100.00;101026.69;5029606;28;19955;-79
2022/03/14 02:29:40;;;;;;;;;;;9.70;99.90;;;9.54;100.00;101038.03;5030324;28;19937;-78
2022/03/14 02:32:08;;;;;;;;;;;11.90;99.90;;;9.54;100.00;101024.91;5030552;28;19929;-78
2022/03/14 02:34:35;;;;;;;;;;;9.70;99.90;;;9.56;100.00;101046.78;4995876;28;19929;-77
2022/03/14 02:37:04;;;;;;;;;;;10.50;99.90;;;9.56;100.00;101048.56;5012997;28;19929;-77
2022/03/14 02:39:32;;;;;;;;;;;9.60;99.90;;;9.48;100.00;101053.88;5026909;28;19937;-77
2022/03/14 02:42:01;;;;;;;;;;;9.70;99.90;;;9.54;100.00;101060.84;5026299;28;19929;-78
2022/03/14 02:44:28;;;;;;;;;;;9.70;99.90;;;9.51;100.00;101067.81;5026074;28;19937;-79
2022/03/14 02:46:57;;;;;;;;;;;9.80;99.90;;;9.60;100.00;101063.41;5013406;28;19929;-79
2022/03/14 02:49:24;;;;;;;;;;;9.70;99.90;;;9.58;100.00;101068.66;5014274;28;19926;-77
2022/03/14 02:51:52;;;;;;;;;;;9.60;99.90;;;9.58;100.00;101071.28;5030011;28;20362;-79
2022/03/14 02:54:19;;;;;;;;;;;9.70;99.90;;;9.63;100.00;101074.75;5013775;28;19929;-77
2022/03/14 02:56:47;;;;;;;;;;;9.70;99.90;;;9.53;100.00;101083.59;5026932;28;19930;-79
2022/03/14 02:59:15;;;;;;;;;;;10.80;99.90;;;9.53;100.00;101083.59;4996880;28;19945;-78
2022/03/14 03:01:42;;;;;;;;;;;9.60;99.90;;;9.52;100.00;101089.72;5029268;28;20396;-79
2022/03/14 03:04:10;;;;;;;;;;;9.60;99.90;;;9.45;100.00;101088.91;5011883;28;19991;-79
2022/03/14 03:06:37;;;;;;;;;;;9.70;99.90;;;9.43;100.00;101088.03;5030716;28;19929;-78
2022/03/14 03:09:04;;;;;;;;;;;10.20;99.90;;;9.44;100.00;101102.03;5031941;28;19926;-77
2022/03/14 03:11:32;;;;;;;;;;;9.90;99.90;;;9.45;100.00;101111.69;5010632;28;19953;-78
2022/03/14 03:14:00;;;;;;;;;;;9.70;99.90;;;9.45;100.00;101115.16;5024299;28;20323;-78
2022/03/14 03:16:27;;;;;;;;;;;9.50;99.90;;;9.45;100.00;101115.16;5024347;28;19929;-77
2022/03/14 03:18:54;;;;;;;;;;;9.60;99.90;;;9.40;100.00;101116.97;5009566;28;19932;-78
2022/03/14 03:21:21;;;;;;;;;;;9.50;99.90;;;9.33;100.00;101118.75;5011095;28;19996;-77
2022/03/14 03:23:48;;;;;;;;;;;10.20;99.90;;;9.38;100.00;101130.97;4999399;28;19925;-78
2022/03/14 03:26:21;;;;;;;;;;;9.50;99.90;;;9.31;100.00;101135.41;5029847;28;19929;-78
2022/03/14 03:28:48;;;;;;;;;;;9.50;99.90;;;9.38;100.00;101142.38;5029181;28;19936;-78
2022/03/14 03:31:24;;;;;;;;;;;9.50;99.90;;;9.29;100.00;101148.56;5010128;28;20516;-77
2022/03/14 03:33:51;;;;;;;;;;;10.10;99.90;;;9.35;100.00;101151.13;5008932;28;19933;-79
2022/03/14 03:36:18;;;;;;;;;;;9.50;99.90;;;9.22;100.00;101146.84;5012921;28;20317;-79
2022/03/14 03:38:45;;;;;;;;;;;10.20;99.90;;;9.29;100.00;101156.44;5028561;28;20337;-77
2022/03/14 03:41:14;;;;;;;;;;;9.50;99.90;;;9.24;100.00;101159.97;5009272;28;19925;-77
2022/03/14 03:43:41;;;;;;;;;;;9.40;99.90;;;9.22;100.00;101152.97;5011217;28;19925;-79
2022/03/14 03:46:08;;;;;;;;;;;9.50;99.90;;;9.23;100.00;101151.22;5028164;28;19930;-77
2022/03/14 03:48:35;;;;;;;;;;;10.80;99.90;;;9.24;100.00;101167.84;5028626;28;19941;-77
2022/03/14 03:51:02;;;;;;;;;;;9.40;99.90;;;9.17;100.00;101165.25;5009898;28;20615;-79
2022/03/14 03:53:29;;;;;;;;;;;9.70;99.90;;;9.19;100.00;101173.13;5023902;28;19930;-78
2022/03/14 03:55:56;;;;;;;;;;;9.30;99.90;;;9.18;100.00;101176.63;5007808;28;19936;-79
2022/03/14 03:58:23;;;;;;;;;;;9.30;99.90;;;9.19;100.00;101181.84;5009256;28;19929;-78
2022/03/14 04:00:51;;;;;;;;;;;9.40;99.90;;;9.13;100.00;101179.28;5014124;28;19930;-79
2022/03/14 04:03:21;;;;;;;;;;;9.40;99.90;;;9.12;100.00;101182.78;4995237;28;19941;-78
2022/03/14 04:05:49;;;;;;;;;;;9.30;99.90;;;9.12;100.00;101182.78;5012578;28;19929;-78
2022/03/14 04:08:17;;;;;;;;;;;9.30;99.90;;;9.17;100.00;101191.50;5007949;28;20414;-76
2022/03/14 04:10:43;;;;;;;;;;;9.30;99.90;;;9.05;100.00;101197.69;4993926;28;19976;-77
2022/03/14 04:13:10;;;;;;;;;;;9.80;99.90;;;9.11;100.00;101207.28;5011368;28;19930;-78
2022/03/14 04:15:42;;;;;;;;;;;9.30;99.90;;;9.05;100.00;101202.94;5027457;28;20382;-78
2022/03/14 04:18:10;;;;;;;;;;;9.20;99.90;;;8.97;100.00;101209.09;5028818;28;19972;-79
2022/03/14 04:20:37;;;;;;;;;;;9.20;99.90;;;8.93;100.00;101216.09;5011291;28;19930;-79
2022/03/14 04:23:03;;;;;;;;;;;9.70;99.90;;;8.93;100.00;101219.63;5010093;28;20309;-77
2022/03/14 04:25:30;;;;;;;;;;;9.20;99.90;;;8.97;100.00;101215.19;5026308;28;19929;-78
2022/03/14 04:27:57;;;;;;;;;;;9.20;99.90;;;8.99;100.00;101230.97;5008206;28;19936;-77
2022/03/14 04:30:24;;;;;;;;;;;9.60;99.90;;;8.96;100.00;101228.34;5008676;28;19933;-76
2022/03/14 04:32:52;;;;;;;;;;;9.20;99.90;;;9.00;100.00;101230.06;5007007;28;19926;-78
2022/03/14 04:35:19;;;;;;;;;;;9.10;99.90;;;8.98;100.00;101237.09;5012198;28;19930;-79
2022/03/14 04:37:45;;;;;;;;;;;9.40;99.90;;;8.97;100.00;101244.06;5013778;28;19933;-79
2022/03/14 04:40:14;;;;;;;;;;;9.20;99.90;;;9.02;100.00;101249.31;5012831;28;20452;-79
2022/03/14 04:42:41;;;;;;;;;;;9.20;99.90;;;9.10;100.00;101265.94;5024481;28;19937;-77
2022/03/14 04:45:09;;;;;;;;;;;9.20;99.90;;;9.07;100.00;101258.94;5022728;28;19936;-77
2022/03/14 04:47:36;;;;;;;;;;;9.20;99.90;;;9.01;100.00;101269.47;5008509;28;19929;-78
2022/03/14 04:50:05;;;;;;;;;;;9.30;99.90;;;9.03;100.00;101272.94;5026554;28;19926;-79
2022/03/14 04:52:34;;;;;;;;;;;9.30;99.90;;;9.01;100.00;101287.84;5027746;28;20357;-78
2022/03/14 04:55:02;;;;;;;;;;;9.20;99.90;;;9.01;100.00;101289.56;4994085;28;19940;-77
2022/03/14 04:57:29;;;;;;;;;;;9.20;99.90;;;8.99;100.00;101300.09;5007948;28;19929;-78
2022/03/14 04:59:56;;;;;;;;;;;9.20;99.90;;;9.03;100.00;101299.19;5006461;28;19933;-77
2022/03/14 05:02:23;;;;;;;;;;;9.20;99.90;;;9.04;100.00;101300.94;5020019;28;19933;-77
2022/03/14 05:04:51;;;;;;;;;;;9.20;99.90;;;9.04;100.00;101310.56;5024387;28;19933;-79
2022/03/14 05:07:18;;;;;;;;;;;9.60;99.90;;;9.01;100.00;101302.69;5024929;28;19929;-77
2022/03/14 05:09:45;;;;;;;;;;;9.20;99.90;;;8.96;100.00;101315.81;5022618;28;19998;-78
2022/03/14 05:12:12;;;;;;;;;;;9.20;99.90;;;8.98;100.00;101315.84;5008630;28;19939;-79
2022/03/14 05:14:40;;;;;;;;;;;9.20;99.90;;;8.99;100.00;101312.34;4990365;28;20335;-77
2022/03/14 05:17:08;;;;;;;;;;;9.10;99.90;;;9.02;100.00;101323.72;5005995;28;19935;-76
2022/03/14 05:19:35;;;;;;;;;;;10.20;99.90;;;8.96;100.00;101314.97;5008303;28;20024;-80
2022/03/14 05:22:06;;;;;;;;;;;9.30;99.90;;;8.94;100.00;101320.22;4972236;28;19943;-76
2022/03/14 05:24:33;;;;;;;;;;;11.30;99.90;;;8.96;100.00;101326.31;4982611;28;20048;-78
2022/03/14 05:27:00;;;;;;;;;;;9.20;99.90;;;8.92;100.00;101321.97;4993073;28;19934;-78
2022/03/14 05:29:27;;;;;;;;;;;9.20;99.90;;;8.96;100.00;101328.94;4990961;28;20275;-79
2022/03/14 05:31:55;;;;;;;;;;;9.20;99.90;;;8.97;100.00;101343.81;4990640;28;19932;-80
2022/03/14 05:34:22;;;;;;;;;;;9.30;99.90;;;8.94;100.00;101344.72;4988908;28;19930;-77
2022/03/14 05:36:49;;;;;;;;;;;9.10;99.90;;;8.92;100.00;101346.47;4982306;28;20508;-78
2022/03/14 05:39:16;;;;;;;;;;;9.30;99.90;;;8.96;100.00;101349.09;4987964;28;20303;-77
2022/03/14 05:41:43;;;;;;;;;;;9.10;99.90;;;8.92;100.00;101356.09;4982235;28;19934;-79
2022/03/14 05:44:10;;;;;;;;;;;9.10;99.90;;;8.94;100.00;101347.34;4974987;28;20017;-78
2022/03/14 05:46:37;;;;;;;;;;;9.10;99.90;;;8.87;100.00;101349.97;4990169;28;19951;-79
2022/03/14 05:49:04;;;;;;;;;;;9.40;99.90;;;8.88;100.00;101368.31;4975504;28;19926;-78
2022/03/14 05:51:34;;;;;;;;;;;9.10;99.90;;;8.93;100.00;101376.22;4911042;28;1770224;-79
2022/03/14 05:54:01;;;;;;;;;;;10.40;99.90;;;8.91;100.00;101391.97;4986323;28;20399;-77
2022/03/14 05:56:28;;;;;;;;;;;9.10;99.90;;;8.91;100.00;101394.59;4990325;28;20378;-78
2022/03/14 05:58:56;;;;;;;;;;;7.90;99.90;;;8.92;100.00;101400.72;4968406;28;19930;-77
2022/03/14 06:01:26;;;;;;;;;;;9.10;99.90;;;8.91;100.00;101396.34;4984717;28;19936;-77
2022/03/14 06:03:54;;;;;;;;;;;9.90;99.90;;;8.85;100.00;101397.22;4982699;28;20352;-78
2022/03/14 06:06:21;;;;;;;;;;;9.10;99.90;;;8.88;100.00;101410.31;4961052;28;19945;-78
2022/03/14 06:08:48;;;;;;;;;;;9.10;99.90;;;8.88;100.00;101404.22;5004608;28;19953;-79
2022/03/14 06:11:15;;;;;;;;;;;9.10;99.90;;;8.91;100.00;101412.97;4957916;28;20021;-79
2022/03/14 06:13:43;;;;;;;;;;;9.10;99.90;;;8.98;100.00;101418.22;4978063;28;19936;-78
2022/03/14 06:16:10;;;;;;;;;;;9.10;99.90;;;8.99;100.00;101415.59;4991660;28;19930;-79
2022/03/14 06:18:37;;;;;;;;;;;8.60;99.90;;;8.94;100.00;101414.69;4991964;28;19929;-79
2022/03/14 06:21:04;;;;;;;;;;;9.20;99.90;;;9.04;100.00;101423.44;4972114;28;20020;-78
2022/03/14 06:23:31;;;;;;;;;;;7.40;99.90;;;9.03;100.00;101432.19;4989046;28;19940;-79
2022/03/14 06:25:59;;;;;;;;;;;9.20;99.90;;;9.01;100.00;101424.34;5020226;28;19932;-79
2022/03/14 06:28:26;;;;;;;;;;;9.20;99.90;;;9.02;100.00;101428.72;5005901;28;19949;-80
2022/03/14 06:30:54;;;;;;;;;;;9.10;99.90;;;8.97;100.00;101434.84;4991082;28;19926;-78
2022/03/14 06:33:21;;;;;;;;;;;9.80;99.90;;;8.93;100.00;101441.81;4991135;28;19977;-78
2022/03/14 06:35:49;;;;;;;;;;;9.10;99.90;;;8.99;100.00;101446.22;4959380;28;19972;-79
2022/03/14 06:38:16;;;;;;;;;;;9.10;99.90;;;8.97;100.00;101454.06;4987897;28;19963;-78
2022/03/14 06:40:43;;;;;;;;;;;9.10;99.90;;;9.00;100.00;101450.56;5022818;28;19930;-79
2022/03/14 06:43:11;;;;;;;;;;;9.10;99.90;;;8.99;100.00;101449.72;4989962;28;19929;-78
2022/03/14 06:45:39;;;;;;;;;;;9.20;99.90;;;9.03;100.00;101466.31;4987079;28;19937;-79
2022/03/14 06:48:06;;;;;;;;;;;9.50;99.90;;;9.05;100.00;101456.69;4988808;28;19929;-78
2022/03/14 06:50:36;;;;;;;;;;;9.20;99.90;;;9.01;100.00;101460.19;4996292;28;19929;-78
2022/03/14 06:53:03;;;;;;;;;;;9.40;99.90;;;9.03;100.00;101454.09;5012821;28;19952;-78
2022/03/14 06:55:31;;;;;;;;;;;9.20;99.90;;;9.02;100.00;101459.31;5008479;28;19936;-78
2022/03/14 06:57:58;;;;;;;;;;;10.20;99.90;;;9.07;100.00;101466.31;4995674;28;19996;-79
2022/03/14 07:00:26;;;;;;;;;;;9.20;99.90;;;9.02;100.00;101464.56;4994265;28;19933;-79
2022/03/14 07:02:54;;;;;;;;;;;9.20;99.90;;;8.98;100.00;101470.72;4994929;28;20001;-79
2022/03/14 07:05:24;;;;;;;;;;;9.20;99.90;;;8.99;100.00;101468.09;4994014;28;19934;-79
2022/03/14 07:07:51;;;;;;;;;;;9.30;99.90;;;9.07;100.00;101479.47;4981745;28;19937;-79
2022/03/14 07:10:20;;;;;;;;;;;9.20;99.90;;;9.05;100.00;101473.34;4981807;28;20025;-79
2022/03/14 07:12:49;;;;;;;;;;;9.20;99.90;;;9.14;100.00;101487.34;4980204;28;19929;-78
2022/03/14 07:15:21;;;;;;;;;;;9.30;99.90;;;9.07;100.00;101491.72;4995280;28;20316;-78
2022/03/14 07:17:49;;;;;;;;;;;9.30;99.90;;;9.07;100.00;101505.72;4994619;28;19925;-79
2022/03/14 07:20:19;;;;;;;;;;;9.30;99.90;;;9.08;100.00;101504.84;4992966;28;20000;-79
2022/03/14 07:22:50;;;;;;;;;;;9.40;99.90;;;9.12;100.00;101515.34;4990418;28;19930;-78
2022/03/14 07:25:19;;;;;;;;;;;9.30;99.90;;;9.15;100.00;101512.72;5006327;28;20491;-78
2022/03/14 07:27:46;;;;;;;;;;;9.30;99.90;;;9.17;100.00;101522.34;4995738;28;19933;-79
2022/03/14 07:30:14;;;;;;;;;;;9.30;99.90;;;8.99;100.00;101531.09;4995191;28;19930;-78
2022/03/14 07:32:41;;;;;;;;;;;9.30;99.90;;;9.05;100.00;101523.22;4992382;28;19933;-79
2022/03/14 07:35:09;;;;;;;;;;;9.80;99.90;;;9.14;100.00;101535.47;4993721;28;20467;-79
2022/03/14 07:37:39;;;;;;;;;;;9.30;99.90;;;9.20;100.00;101534.59;4993543;28;19937;-79
2022/03/14 07:40:08;;;;;;;;;;;9.30;99.90;;;9.27;100.00;101546.84;4979724;28;19933;-79
2022/03/14 07:42:46;;;;;;;;;;;9.30;99.90;;;9.24;100.00;101552.09;4980882;28;19994;-79
2022/03/14 07:45:15;;;;;;;;;;;9.30;99.90;;;9.29;100.00;101545.13;4995912;28;19936;-78
2022/03/14 07:47:44;;;;;;;;;;;11.20;99.90;;;9.34;100.00;101547.72;4992459;28;19930;-77
2022/03/14 07:50:14;;;;;;;;;;;9.40;99.90;;;9.41;100.00;101551.22;4995978;28;19930;-79
2022/03/14 07:52:42;;;;;;;;;;;10.80;99.90;;;9.40;100.00;101560.00;4980550;28;19929;-79
2022/03/14 07:55:10;;;;;;;;;;;9.50;99.90;;;9.48;100.00;101568.75;4993774;28;20413;-78
2022/03/14 07:57:38;;;;;;;;;;;10.20;99.90;;;9.52;100.00;101575.75;4992625;28;20365;-78
2022/03/14 08:00:11;;;;;;;;;;;9.60;99.90;;;9.50;100.00;101573.13;4988652;28;19926;-79
2022/03/14 08:02:42;;;;;;;;;;;9.60;99.90;;;9.50;100.00;101572.25;4990884;28;19985;-79
2022/03/14 08:05:13;;;;;;;;;;;9.70;99.90;;;9.59;100.00;101580.13;4992264;28;19980;-78
2022/03/14 08:07:44;;;;;;;;;;;9.80;99.90;;;9.65;100.00;101581.88;4991370;28;19973;-80
2022/03/14 08:10:12;;;;;;;;;;;10.10;99.90;;;9.70;100.00;101590.66;4991342;28;20032;-79
2022/03/14 08:12:48;;;;;;;;;;;9.80;99.90;;;9.63;100.00;101595.03;4974527;28;19953;-79
2022/03/14 08:15:25;;;;;;;;;;;9.80;99.90;;;9.76;100.00;101605.53;4991655;28;19926;-78
2022/03/14 08:17:54;;;;;;;;;;;9.80;99.90;;;9.74;100.00;101602.91;5011695;28;19940;-79
2022/03/14 08:20:26;;;;;;;;;;;9.80;99.90;;;9.86;100.00;101615.16;5032596;28;19926;-79
2022/03/14 08:22:54;;;;;;;;;;;10.10;99.90;;;9.95;100.00;101613.41;4971684;28;19980;-80
2022/03/14 08:25:22;;;;;;;;;;;9.90;99.90;;;10.04;100.00;101622.16;4973433;28;19941;-80
2022/03/14 08:27:49;;;;;;;;;;;10.00;99.90;;;10.01;100.00;101616.91;4989642;28;19971;-81
2022/03/14 08:30:17;;;;;;;;;;;10.10;99.90;;;10.07;100.00;101616.88;4990989;28;19968;-81
2022/03/14 08:32:48;;;;;;;;;;;10.10;99.90;;;10.02;100.00;101617.75;4997743;28;19964;-82
2022/03/14 08:35:30;;;;;;;;;;;10.20;99.90;;;10.04;100.00;101616.88;4995306;28;20036;-80
2022/03/14 08:37:59;;;;;;;;;;;10.20;99.90;;;10.16;100.00;101625.66;5018295;28;19937;-81
2022/03/14 08:40:46;;;;;;;;;;;10.60;99.90;;;10.15;100.00;101622.13;4995977;28;19984;-80
2022/03/14 08:43:13;;;;;;;;;;;8.80;99.90;;;10.23;100.00;101623.88;5012577;28;20040;-81
2022/03/14 08:45:43;;;;;;;;;;;10.90;99.90;;;10.20;100.00;101619.50;4993739;28;20387;-79
2022/03/14 08:48:15;;;;;;;;;;;10.30;99.90;;;10.21;100.00;101634.38;4993968;28;19920;-81
2022/03/14 08:50:45;;;;;;;;;;;10.30;99.90;;;10.14;100.00;101635.25;5010836;28;19929;-82
2022/03/14 08:53:16;;;;;;;;;;;10.30;99.90;;;10.30;100.00;101625.59;5012651;28;19934;-81
2022/03/14 08:55:44;;;;;;;;;;;10.00;99.90;;;10.41;100.00;101634.38;5016124;28;19929;-81
2022/03/14 08:58:12;;;;;;;;;;;10.40;99.90;;;10.53;100.00;101638.72;5011921;28;19997;-81
2022/03/14 09:00:45;;;;;;;;;;;8.50;99.90;;;10.52;100.00;101638.72;4960493;28;19926;-79
2022/03/14 09:03:12;;;;;;;;;;;10.60;99.90;;;10.54;100.00;101640.47;4959964;28;19945;-79
2022/03/14 09:05:39;;;;;;;;;;;11.20;99.90;;;10.61;100.00;101638.69;4975575;28;20375;-79
2022/03/14 09:08:27;;;;;;;;;;;10.60;99.90;;;10.82;100.00;101650.00;4957998;28;19922;-80
2022/03/14 09:10:55;;;;;;;;;;;10.80;99.70;;;10.71;100.00;101632.50;4953636;28;20437;-80
2022/03/14 09:13:28;;;;;;;;;;;10.80;99.30;;;10.84;100.00;101638.59;4956970;28;20499;-79
2022/03/14 09:16:17;;;;;;;;;;;10.90;98.80;;;10.90;100.00;101650.84;4959081;28;19926;-79
2022/03/14 09:19:45;;;;;;;;;;;10.90;98.80;;;10.96;100.00;101640.28;4960150;28;19937;-79
2022/03/14 09:22:14;;;;;;;;;;;10.90;98.90;;;10.97;100.00;101647.28;4971408;28;19926;-79
2022/03/14 09:25:01;;;;;;;;;;;11.00;98.80;;;10.99;100.00;101644.66;4958197;28;19930;-80
2022/03/14 09:27:28;;;;;;;;;;;10.90;97.80;;;11.15;100.00;101645.44;4970597;28;19937;-78
2022/03/14 09:29:55;;;;;;;;;;;11.10;98.40;;;11.04;100.00;101651.66;4970764;28;19936;-78
2022/03/14 09:32:23;;;;;;;;;;;11.10;98.10;;;11.01;100.00;101642.91;4977307;28;19934;-81
2022/03/14 09:38:44;;;;;;;;;;;11.10;98.20;;;11.20;100.00;101648.94;4991746;28;19933;-81
2022/03/14 09:41:12;;;;;;;;;;;12.60;98.60;;;11.09;100.00;101653.38;4986814;28;19926;-79
2022/03/14 09:43:55;;;;;;;;;;;11.20;97.90;;;11.32;100.00;101651.50;4991705;28;19949;-83
2022/03/14 09:47:01;;;;;;;;;;;11.20;98.10;;;11.48;100.00;101654.03;4980661;28;19949;-79
2022/03/14 09:49:30;;;;;;;;;;;11.30;98.00;;;11.61;100.00;101657.44;5006829;28;19926;-82
2022/03/14 09:51:59;;;;;;;;;;;12.40;97.90;;;11.71;100.00;101663.50;5009234;28;19996;-81
2022/03/14 09:54:26;;;;;;;;;;;11.60;97.40;;;11.63;100.00;101650.41;4983405;28;20338;-81
2022/03/14 09:56:59;;;;;;;;;;;11.60;97.30;;;11.81;100.00;101652.00;4996433;28;20224;-82
2022/03/14 09:59:26;;;;;;;;;;;11.20;97.60;;;11.88;100.00;101658.09;4984890;28;19953;-80
2022/03/14 10:02:51;;;;;;;;;;;11.80;97.70;;;11.86;100.00;101654.59;5000336;28;19930;-83
2022/03/14 10:05:51;;;;;;;;;;;11.90;96.70;;;11.82;100.00;101666.06;4946582;29;19935;-83
2022/03/14 10:09:12;;;;;;;;;;;11.90;96.00;;;11.71;100.00;101663.50;4913771;29;19936;-81
2022/03/14 10:11:40;;;;;;;;;;;11.90;96.10;;;11.78;100.00;101673.09;4955082;28;19930;-80
2022/03/14 10:14:25;;;;;;;;;;;11.80;96.30;;;11.90;100.00;101672.16;4920185;29;19972;-82
2022/03/14 10:17:16;;;;;;;;;;;11.90;96.40;;;12.01;100.00;101667.66;4945685;28;19969;-82
2022/03/14 10:19:56;;;;;;;;;;;12.30;96.50;;;12.01;100.00;101665.03;4920879;29;19965;-79
2022/03/14 10:22:23;;;;;;;;;;;12.00;96.10;;;11.95;100.00;101662.44;4918745;29;20029;-80
2022/03/14 10:25:02;;;;;;;;;;;12.00;95.50;;;12.23;100.00;101670.13;4940600;29;19927;-82
2022/03/14 10:27:32;;;;;;;;;;;12.00;95.70;;;12.37;100.00;101671.75;4948203;29;19931;-81
2022/03/14 10:30:02;;;;;;;;;;;12.60;96.00;;;12.40;100.00;101680.47;4940795;29;19949;-81
2022/03/14 10:32:30;;;;;;;;;;;12.20;95.60;;;12.33;99.38;101686.72;4955386;29;20037;-81
2022/03/14 10:35:03;;;;;;;;;;;12.30;95.10;;;12.31;99.08;101686.72;4938583;29;19930;-80
2022/03/14 10:37:31;;;;;;;;;;;12.30;94.90;;;12.32;98.77;101692.91;4940815;29;19937;-80
2022/03/14 10:40:04;;;;;;;;;;;12.30;95.00;;;12.32;95.84;101677.91;4925941;29;19964;-79
2022/03/14 10:42:42;;;;;;;;;;;12.40;94.50;;;12.59;99.04;101683.81;4950024;28;19965;-79
2022/03/14 10:45:30;;;;;;;;;;;12.40;95.00;;;12.70;99.38;101683.66;4996588;28;20338;-80
2022/03/14 10:47:58;;;;;;;;;;;12.50;95.10;;;12.71;94.33;101681.91;4979535;28;19930;-79
2022/03/14 10:50:31;;;;;;;;;;;12.60;94.40;;;12.62;90.84;101683.75;4979238;28;19936;-81
2022/03/14 10:53:04;;;;;;;;;;;12.60;93.90;;;12.52;90.25;101695.34;4997065;28;19926;-82
2022/03/14 10:55:56;;;;;;;;;;;12.60;93.60;;;12.51;87.05;101695.34;4977783;28;19996;-79
2022/03/14 10:58:33;;;;;;;;;;;12.60;93.30;;;12.39;84.38;101680.50;4993300;28;19932;-82
2022/03/14 11:01:03;;;;;;;;;;;13.40;93.10;;;12.57;84.43;101693.50;4992832;28;19933;-82
2022/03/14 11:07:32;;;;;;;;;;;12.60;93.40;;;12.81;84.48;101694.13;5011118;28;19926;-81
2022/03/14 11:10:02;;;;;;;;;;;11.80;92.90;;;12.65;83.05;101677.56;4984527;28;19926;-82
2022/03/14 11:12:54;;;;;;;;;;;12.80;92.70;;;12.72;84.40;101696.88;4995855;28;19957;-80
2022/03/14 11:16:02;;;;;;;;;;;12.80;92.80;;;13.05;84.43;101694.69;5001250;28;19940;-82
2022/03/14 11:18:30;;;;;;;;;;;12.80;93.20;;;13.15;84.29;101698.97;4983787;28;19929;-81
2022/03/14 11:20:59;;;;;;;;;;;14.10;93.50;;;13.12;78.51;101701.66;4995397;28;20526;-82
2022/03/14 11:23:52;;;;;;;;;;;13.00;92.20;;;13.23;80.73;101700.63;4997298;28;19936;-81
2022/03/14 11:26:24;;;;;;;;;;;13.10;92.40;;;13.04;78.32;101687.66;4995299;28;20003;-82
2022/03/14 11:28:54;;;;;;;;;;;13.20;92.10;;;13.14;77.79;101683.13;4984945;28;19997;-79
2022/03/14 11:31:22;;;;;;;;;;;13.10;91.80;;;13.10;77.82;101692.00;5004345;28;19933;-79
2022/03/14 11:34:34;;;;;;;;;;;13.10;91.80;;;13.16;76.43;101689.25;4983663;28;19930;-82